Floydada, Texas
Current Conditions -  °F | °C
As of 9:55 PM on Thursday 18 Dec 2014 (Local Time) from KPVW Reporting Station
Overcast Overcast  
Wind Chill: 32°   Ceiling: 700
Heat Index: 38°   Visibility: 7mi
Dew Point: 36°   Wind: 9mph
Humidity: 91%   Direction: 100°E
Pressure: 30.13"   Gusts: NA
Location:  33.98°N, 101.34°W
Report Text: KPVW 190355Z AUTO 10008KT 7SM OVC007 04/02 A3013 RMK AO2 T00350022
Loading
Personal Weather Stations






























Interactive Weather Map New forecast layout! Learn more

10-Day Weather Forecast

Advertisements
Track Severe Weather on mobile